createdAt,value
2019-02-19T00:00:37.736Z,100765.58
2019-02-19T00:03:09.709Z,100773.00
2019-02-19T00:05:41.662Z,100768.13
2019-02-19T00:08:13.526Z,100772.05
2019-02-19T00:10:45.448Z,100762.97
2019-02-19T00:13:17.272Z,100765.17
2019-02-19T00:15:49.276Z,100759.94
2019-02-19T00:18:21.194Z,100762.01
2019-02-19T00:20:53.144Z,100763.31
2019-02-19T00:23:25.054Z,100756.78
2019-02-19T00:25:58.591Z,100755.34
2019-02-19T00:28:30.521Z,100760.61
2019-02-19T00:31:02.391Z,100761.92
2019-02-19T00:33:34.312Z,100752.75
2019-02-19T00:36:06.203Z,100766.81
2019-02-19T00:38:38.134Z,100753.61
2019-02-19T00:41:10.892Z,100752.40
2019-02-19T00:43:42.841Z,100761.91
2019-02-19T00:46:14.664Z,100762.37
2019-02-19T00:48:46.543Z,100761.06
2019-02-19T00:51:18.336Z,100765.28
2019-02-19T00:53:50.197Z,100759.55
2019-02-19T00:56:22.728Z,100750.37
2019-02-19T00:58:54.573Z,100752.51
2019-02-19T01:01:26.436Z,100749.00
2019-02-19T01:03:58.257Z,100747.58
2019-02-19T01:06:30.165Z,100747.62
2019-02-19T01:09:01.973Z,100741.00
2019-02-19T01:11:35.445Z,100742.36
2019-02-19T01:14:07.300Z,100743.50
2019-02-19T01:16:39.161Z,100739.18
2019-02-19T01:19:10.977Z,100735.53
2019-02-19T01:21:42.954Z,100734.27
2019-02-19T01:24:14.851Z,100733.47
2019-02-19T01:26:46.693Z,100730.88
2019-02-19T01:29:18.493Z,100729.70
2019-02-19T01:31:50.310Z,100727.99
2019-02-19T01:34:22.121Z,100722.27
2019-02-19T01:36:53.970Z,100718.41
2019-02-19T01:39:25.820Z,100718.00
2019-02-19T01:41:57.648Z,100715.77
2019-02-19T01:44:29.498Z,100710.52
2019-02-19T01:47:01.370Z,100703.50
2019-02-19T01:49:33.230Z,100706.56
2019-02-19T01:52:05.050Z,100704.36
2019-02-19T01:54:36.963Z,100702.98
2019-02-19T01:57:08.842Z,100703.93
2019-02-19T01:59:40.665Z,100706.95
2019-02-19T02:02:12.604Z,100706.09
2019-02-19T02:04:44.493Z,100704.00
2019-02-19T02:07:16.306Z,100704.23
2019-02-19T02:09:48.160Z,100698.91
2019-02-19T02:12:20.011Z,100701.59
2019-02-19T02:14:51.823Z,100694.77
2019-02-19T02:17:23.847Z,100693.44
2019-02-19T02:19:55.722Z,100688.71
2019-02-19T02:22:27.552Z,100691.39
2019-02-19T02:24:59.423Z,100689.19
2019-02-19T02:27:31.343Z,100688.33
2019-02-19T02:30:04.228Z,100686.53
2019-02-19T02:32:36.311Z,100684.77
2019-02-19T02:35:11.259Z,100684.84
2019-02-19T02:37:42.694Z,100676.95
2019-02-19T02:40:14.610Z,100678.19
2019-02-19T02:42:46.427Z,100678.22
2019-02-19T02:45:18.250Z,100677.74
2019-02-19T02:47:50.157Z,100669.34
2019-02-19T02:50:22.015Z,100671.06
2019-02-19T02:52:53.884Z,100670.58
2019-02-19T02:55:25.727Z,100672.30
2019-02-19T02:57:57.753Z,100668.78
2019-02-19T03:00:29.558Z,100660.47
2019-02-19T03:03:01.415Z,100666.58
2019-02-19T03:05:33.315Z,100670.15
2019-02-19T03:08:06.135Z,100668.00
2019-02-19T03:10:38.971Z,100664.95
2019-02-19T03:13:12.461Z,100668.46
2019-02-19T03:15:44.460Z,100662.34
2019-02-19T03:18:17.886Z,100665.05
2019-02-19T03:20:57.374Z,100659.33
2019-02-19T03:23:33.408Z,100657.59
2019-02-19T03:26:05.305Z,100658.05
2019-02-19T03:28:37.236Z,100648.92
2019-02-19T03:31:10.502Z,100647.62
2019-02-19T03:33:42.443Z,100643.31
2019-02-19T03:36:14.348Z,100645.12
2019-02-19T03:38:48.475Z,100648.65
2019-02-19T03:41:24.474Z,100647.00
2019-02-19T03:43:58.881Z,100646.02
2019-02-19T03:46:30.738Z,100641.70
2019-02-19T03:49:04.317Z,100640.77
2019-02-19T03:51:38.407Z,100641.66
2019-02-19T03:54:15.708Z,100636.95
2019-02-19T03:56:47.593Z,100633.00
2019-02-19T03:59:19.562Z,100635.64
2019-02-19T04:01:51.509Z,100639.08
2019-02-19T04:04:23.330Z,100634.77
2019-02-19T04:06:56.801Z,100637.01
2019-02-19T04:09:28.712Z,100635.69
2019-02-19T04:12:00.859Z,100642.66
2019-02-19T04:14:32.696Z,100635.71
2019-02-19T04:17:04.738Z,100629.13
2019-02-19T04:19:36.665Z,100632.56
2019-02-19T04:22:08.634Z,100631.73
2019-02-19T04:24:41.887Z,100628.62
2019-02-19T04:27:13.748Z,100637.29
2019-02-19T04:29:46.966Z,100638.99
2019-02-19T04:32:20.214Z,100640.83
2019-02-19T04:34:52.074Z,100634.33
2019-02-19T04:37:29.918Z,100630.81
2019-02-19T04:40:00.728Z,100633.42
2019-02-19T04:42:33.782Z,100636.91
2019-02-19T04:45:09.854Z,100629.42
2019-02-19T04:47:45.208Z,100624.23
2019-02-19T04:50:17.010Z,100625.95
2019-02-19T04:52:53.984Z,100634.10
2019-02-19T04:55:27.846Z,100637.09
2019-02-19T04:58:00.460Z,100643.13
2019-02-19T05:00:33.676Z,100633.98
2019-02-19T05:03:08.792Z,100636.20
2019-02-19T05:05:40.941Z,100639.19
2019-02-19T05:08:13.287Z,100634.80
2019-02-19T05:10:45.404Z,100634.73
2019-02-19T05:13:17.364Z,100632.56
2019-02-19T05:15:49.291Z,100640.82
2019-02-19T05:18:21.279Z,100639.15
2019-02-19T05:20:53.277Z,100638.67
2019-02-19T05:23:25.144Z,100642.12
2019-02-19T05:25:56.929Z,100640.48
2019-02-19T05:28:28.831Z,100645.69
2019-02-19T05:31:00.701Z,100644.33
2019-02-19T05:33:32.569Z,100648.18
2019-02-19T05:36:04.403Z,100646.72
2019-02-19T05:38:36.291Z,100653.25
2019-02-19T05:41:08.135Z,100645.92
2019-02-19T05:43:40.049Z,100651.16
2019-02-19T05:46:11.877Z,100651.64
2019-02-19T05:48:43.789Z,100663.80
2019-02-19T05:51:15.679Z,100660.33
2019-02-19T05:53:47.509Z,100669.09
2019-02-19T05:56:19.355Z,100668.73
2019-02-19T05:58:51.382Z,100664.70
2019-02-19T06:01:23.280Z,100665.25
2019-02-19T06:03:55.135Z,100665.34
2019-02-19T06:06:26.926Z,100667.96
2019-02-19T06:08:58.774Z,100674.05
2019-02-19T06:11:30.572Z,100676.69
2019-02-19T06:14:02.375Z,100682.73
2019-02-19T06:16:36.710Z,100677.11
2019-02-19T06:19:08.557Z,100679.70
2019-02-19T06:21:40.428Z,100679.36
2019-02-19T06:24:12.231Z,100683.72
2019-02-19T06:26:44.240Z,100674.16
2019-02-19T06:29:16.090Z,100680.71
2019-02-19T06:31:47.959Z,100682.55
2019-02-19T06:34:19.851Z,100683.36
2019-02-19T06:36:51.687Z,100686.98
2019-02-19T06:39:23.520Z,100679.59
2019-02-19T06:41:55.378Z,100683.55
2019-02-19T06:44:27.289Z,100701.47
2019-02-19T06:47:06.512Z,100696.26
2019-02-19T06:49:32.638Z,100705.50
2019-02-19T06:52:04.491Z,100711.23
2019-02-19T06:54:36.320Z,100717.83
2019-02-19T06:57:08.121Z,100724.00
2019-02-19T06:59:39.994Z,100716.19
2019-02-19T07:02:39.916Z,100717.09
2019-02-19T07:05:19.827Z,100715.37
2019-02-19T07:07:51.654Z,100713.24
2019-02-19T07:10:23.448Z,100709.30
2019-02-19T07:12:55.490Z,100711.95
2019-02-19T07:15:27.344Z,100715.88
2019-02-19T07:17:59.196Z,100719.83
2019-02-19T07:20:30.988Z,100711.52
2019-02-19T07:23:02.899Z,100711.98
2019-02-19T07:25:34.872Z,100710.69
2019-02-19T07:28:06.748Z,100721.63
2019-02-19T07:30:38.582Z,100722.97
2019-02-19T07:33:10.426Z,100714.67
2019-02-19T07:35:42.284Z,100716.44
2019-02-19T07:38:14.130Z,100717.75
2019-02-19T07:40:46.010Z,100721.27
2019-02-19T07:43:17.846Z,100714.69
2019-02-19T07:45:49.719Z,100724.34
2019-02-19T07:48:21.499Z,100721.25
2019-02-19T07:50:53.348Z,100721.23
2019-02-19T07:53:25.202Z,100718.16
2019-02-19T07:55:57.126Z,100715.52
2019-02-19T07:58:30.132Z,100713.78
2019-02-19T08:01:01.950Z,100716.83
2019-02-19T08:03:33.831Z,100715.96
2019-02-19T08:06:05.714Z,100719.00
2019-02-19T08:08:37.609Z,100718.55
2019-02-19T08:11:09.425Z,100722.91
2019-02-19T08:13:41.237Z,100723.28
2019-02-19T08:16:13.073Z,100719.73
2019-02-19T08:18:44.929Z,100718.31
2019-02-19T08:21:16.778Z,100713.42
2019-02-19T08:23:49.734Z,100714.64
2019-02-19T08:26:21.538Z,100718.03
2019-02-19T08:28:53.341Z,100717.91
2019-02-19T08:31:25.141Z,100714.69
2019-02-19T08:33:56.978Z,100718.08
2019-02-19T08:36:29.786Z,100720.55
2019-02-19T08:39:01.713Z,100720.48
2019-02-19T08:41:35.203Z,100722.84
2019-02-19T08:44:08.453Z,100721.68
2019-02-19T08:46:40.412Z,100721.99
2019-02-19T08:49:12.255Z,100728.92
2019-02-19T08:51:44.128Z,100730.80
2019-02-19T08:54:16.110Z,100732.78
2019-02-19T08:56:47.925Z,100737.41
2019-02-19T08:59:19.795Z,100728.02
2019-02-19T09:01:51.590Z,100727.00
2019-02-19T09:04:23.516Z,100725.23
2019-02-19T09:06:55.303Z,100736.28
2019-02-19T09:09:27.178Z,100736.79
2019-02-19T09:11:58.986Z,100741.02
2019-02-19T09:14:30.841Z,100739.41
2019-02-19T09:17:02.704Z,100747.65
2019-02-19T09:19:34.648Z,100744.02
2019-02-19T09:22:06.562Z,100743.15
2019-02-19T09:24:38.411Z,100749.31
2019-02-19T09:27:10.212Z,100748.94
2019-02-19T09:29:42.095Z,100758.83
2019-02-19T09:32:13.941Z,100753.42
2019-02-19T09:34:45.761Z,100752.64
2019-02-19T09:37:17.576Z,100749.42
2019-02-19T09:39:49.426Z,100755.37
2019-02-19T09:42:21.246Z,100754.06
2019-02-19T09:44:53.098Z,100760.96
2019-02-19T09:47:24.950Z,100764.27
2019-02-19T09:49:56.787Z,100767.09
2019-02-19T09:52:28.642Z,100757.53
2019-02-19T09:55:00.513Z,100762.18
2019-02-19T09:57:32.779Z,100756.97
2019-02-19T10:00:05.686Z,100764.26
2019-02-19T10:02:37.698Z,100763.16
2019-02-19T10:05:11.558Z,100763.41
2019-02-19T10:07:43.498Z,100761.44
2019-02-19T10:10:17.056Z,100761.42
2019-02-19T10:12:48.916Z,100767.16
2019-02-19T10:15:20.763Z,100761.75
2019-02-19T10:17:52.653Z,100761.74
2019-02-19T10:20:24.473Z,100757.55
2019-02-19T10:22:56.365Z,100765.64
2019-02-19T10:25:28.218Z,100762.08
2019-02-19T10:28:00.101Z,100763.11
2019-02-19T10:30:32.089Z,100755.99
2019-02-19T10:33:03.934Z,100758.69
2019-02-19T10:35:35.887Z,100756.45
2019-02-19T10:38:07.837Z,100753.12
2019-02-19T10:40:39.701Z,100755.67
2019-02-19T10:43:11.549Z,100753.67
2019-02-19T10:45:43.323Z,100757.64
2019-02-19T10:48:18.956Z,100754.61
2019-02-19T10:50:48.823Z,100761.30
2019-02-19T10:53:20.786Z,100752.40
2019-02-19T10:55:52.604Z,100737.98
2019-02-19T10:58:24.449Z,100747.94
2019-02-19T11:00:56.311Z,100747.55
2019-02-19T11:03:28.169Z,100738.09
2019-02-19T11:05:59.991Z,100748.86
2019-02-19T11:08:31.867Z,100758.96
2019-02-19T11:11:03.670Z,100756.20
2019-02-19T11:13:35.570Z,100753.00
2019-02-19T11:16:07.495Z,100750.77
2019-02-19T11:18:39.344Z,100755.57
2019-02-19T11:21:19.401Z,100763.30
2019-02-19T11:23:44.802Z,100755.53
2019-02-19T11:26:16.687Z,100742.18
2019-02-19T11:28:48.544Z,100749.36
2019-02-19T11:31:20.448Z,100751.52
2019-02-19T11:33:52.307Z,100759.03
2019-02-19T11:36:24.190Z,100755.11
2019-02-19T11:38:56.134Z,100753.92
2019-02-19T11:41:28.097Z,100758.36
2019-02-19T11:43:59.939Z,100750.94
2019-02-19T11:46:31.821Z,100743.57
2019-02-19T11:49:03.642Z,100741.73
2019-02-19T11:51:35.559Z,100745.41
2019-02-19T11:54:07.444Z,100690.52
2019-02-19T11:56:39.302Z,100727.20
2019-02-19T11:59:11.203Z,100729.89
2019-02-19T12:01:44.290Z,100745.09
2019-02-19T12:04:16.262Z,100746.26
2019-02-19T12:06:48.262Z,100743.09
2019-02-19T12:09:20.198Z,100741.24
2019-02-19T12:11:52.058Z,100739.69
2019-02-19T12:14:23.992Z,100744.22
2019-02-19T12:16:55.829Z,100746.19
2019-02-19T12:19:27.681Z,100750.30
2019-02-19T12:21:59.529Z,100745.36
2019-02-19T12:24:31.403Z,100751.34
2019-02-19T12:27:03.247Z,100747.20
2019-02-19T12:29:35.099Z,100746.70
2019-02-19T12:32:07.024Z,100753.49
2019-02-19T12:34:38.868Z,100748.23
2019-02-19T12:37:10.780Z,100742.75
2019-02-19T12:39:42.610Z,100742.33
2019-02-19T12:42:14.433Z,100749.72
2019-02-19T12:44:46.340Z,100745.92
2019-02-19T12:47:18.226Z,100745.31
2019-02-19T12:49:50.154Z,100740.66
2019-02-19T12:52:22.079Z,100742.31
2019-02-19T12:54:54.888Z,100740.02
2019-02-19T12:57:26.773Z,100742.22
2019-02-19T12:59:58.735Z,100740.02
2019-02-19T13:02:30.648Z,100735.77
2019-02-19T13:05:02.516Z,100729.89
2019-02-19T13:07:34.443Z,100732.09
2019-02-19T13:10:06.784Z,100734.67
2019-02-19T13:12:38.616Z,100740.79
2019-02-19T13:15:13.152Z,100742.12
2019-02-19T13:17:45.308Z,100746.94
2019-02-19T13:20:17.213Z,100744.94
2019-02-19T13:22:49.096Z,100741.45
2019-02-19T13:25:20.869Z,100746.06
2019-02-19T13:27:53.035Z,100746.16
2019-02-19T13:30:24.975Z,100753.08
2019-02-19T13:32:57.025Z,100748.79
2019-02-19T13:35:28.914Z,100751.95
2019-02-19T13:38:00.806Z,100742.82
2019-02-19T13:40:32.616Z,100746.70
2019-02-19T13:43:04.469Z,100745.63
2019-02-19T13:45:36.357Z,100745.63
2019-02-19T13:48:08.335Z,100742.45
2019-02-19T13:50:40.251Z,100741.31
2019-02-19T13:53:36.998Z,100744.50
2019-02-19T13:56:08.997Z,100745.32
2019-02-19T13:58:40.908Z,100737.09
2019-02-19T14:01:12.812Z,100735.73
2019-02-19T14:03:44.680Z,100733.14
2019-02-19T14:06:16.575Z,100730.76
2019-02-19T14:08:48.407Z,100733.13
2019-02-19T14:11:20.315Z,100736.64
2019-02-19T14:14:18.583Z,100741.05
2019-02-19T14:16:53.903Z,100746.73
2019-02-19T14:19:39.378Z,100746.41
2019-02-19T14:22:42.399Z,100751.17
2019-02-19T14:25:38.903Z,100750.11
2019-02-19T14:28:28.451Z,100746.38
2019-02-19T14:31:13.637Z,100747.16
2019-02-19T14:34:02.953Z,100741.85
2019-02-19T14:36:54.783Z,100735.27
2019-02-19T14:40:11.591Z,100733.63
2019-02-19T14:43:12.817Z,100723.81
2019-02-19T14:46:02.724Z,100736.62
2019-02-19T14:52:38.675Z,100739.86
2019-02-19T14:55:29.795Z,100731.78
2019-02-19T14:58:38.244Z,100730.96
2019-02-19T15:02:16.123Z,100739.00
2019-02-19T15:05:04.647Z,100731.03
2019-02-19T15:08:01.616Z,100724.61
2019-02-19T15:10:51.343Z,100729.09
2019-02-19T15:13:36.072Z,100740.00
2019-02-19T15:16:23.550Z,100744.78
2019-02-19T15:27:42.984Z,100749.72
2019-02-19T15:48:45.658Z,100753.41
2019-02-19T15:56:54.760Z,100772.83
2019-02-19T16:01:03.762Z,100769.48
2019-02-19T16:05:11.215Z,100770.06
2019-02-19T16:09:06.899Z,100772.13
2019-02-19T16:16:45.071Z,100775.87
2019-02-19T16:19:57.021Z,100775.55
2019-02-19T16:22:54.859Z,100778.72
2019-02-19T16:26:05.469Z,100785.84
2019-02-19T17:16:16.590Z,100815.73
2019-02-19T17:18:18.864Z,100817.54
2019-02-19T17:21:27.228Z,100818.41
2019-02-19T17:25:15.062Z,100820.16
2019-02-19T17:27:05.781Z,100825.00
2019-02-19T17:29:44.298Z,100820.13
2019-02-19T17:32:38.210Z,100835.94
2019-02-19T17:35:40.237Z,100834.66
2019-02-19T17:38:39.956Z,100841.20
2019-02-19T17:41:32.615Z,100841.69
2019-02-19T17:44:10.588Z,100850.09
2019-02-19T17:47:00.215Z,100843.98
2019-02-19T17:49:47.738Z,100845.78
2019-02-19T17:52:37.566Z,100848.90
2019-02-19T17:55:28.711Z,100851.53
2019-02-19T17:58:19.715Z,100855.45
2019-02-19T18:01:22.453Z,100852.36
2019-02-19T18:04:22.342Z,100856.27
2019-02-19T18:07:06.019Z,100853.64
2019-02-19T18:09:59.274Z,100858.47
2019-02-19T18:12:50.000Z,100863.30
2019-02-19T18:15:46.812Z,100861.55
2019-02-19T18:18:40.637Z,100865.05
2019-02-19T18:21:14.176Z,100865.02
2019-02-19T18:23:48.241Z,100864.58
2019-02-19T18:26:29.788Z,100861.02
2019-02-19T18:29:03.259Z,100856.63
2019-02-19T18:31:38.069Z,100857.98
2019-02-19T18:34:10.626Z,100853.55
2019-02-19T18:36:43.817Z,100848.28
2019-02-19T18:39:16.932Z,100839.50
2019-02-19T18:41:49.005Z,100839.05
2019-02-19T18:44:21.137Z,100836.86
2019-02-19T18:46:53.286Z,100832.41
2019-02-19T18:49:25.291Z,100831.09
2019-02-19T18:51:57.247Z,100831.58
2019-02-19T18:54:30.313Z,100835.06
2019-02-19T18:57:02.346Z,100835.98
2019-02-19T18:59:34.406Z,100841.26
2019-02-19T19:02:06.481Z,100842.91
2019-02-19T19:04:38.402Z,100839.45
2019-02-19T19:07:10.311Z,100842.08
2019-02-19T19:09:42.245Z,100838.95
2019-02-19T19:12:14.282Z,100841.19
2019-02-19T19:14:46.391Z,100842.47
2019-02-19T19:17:18.599Z,100847.34
2019-02-19T19:19:50.607Z,100851.30
2019-02-19T19:22:25.453Z,100852.17
2019-02-19T19:24:57.589Z,100853.94
2019-02-19T19:27:29.541Z,100859.21
2019-02-19T19:30:01.570Z,100861.84
2019-02-19T19:32:33.700Z,100860.97
2019-02-19T19:35:05.922Z,100858.77
2019-02-19T19:37:37.995Z,100860.13
2019-02-19T19:40:10.191Z,100866.29
2019-02-19T19:42:42.229Z,100866.28
2019-02-19T19:45:14.521Z,100868.04
2019-02-19T19:47:46.650Z,100863.59
2019-02-19T19:50:19.793Z,100866.72
2019-02-19T19:52:51.864Z,100863.21
2019-02-19T19:55:24.004Z,100866.28
2019-02-19T19:57:56.445Z,100869.80
2019-02-19T20:00:28.657Z,100864.08
2019-02-19T20:03:01.172Z,100875.95
2019-02-19T20:05:34.642Z,100869.36
2019-02-19T20:08:06.593Z,100880.34
2019-02-19T20:10:39.262Z,100877.27
2019-02-19T20:13:11.383Z,100878.18
2019-02-19T20:15:44.221Z,100875.06
2019-02-19T20:18:16.456Z,100880.34
2019-02-19T20:20:50.235Z,100879.50
2019-02-19T20:23:22.371Z,100879.06
2019-02-19T20:25:54.602Z,100886.53
2019-02-19T20:28:28.174Z,100892.20
2019-02-19T20:31:01.172Z,100887.37
2019-02-19T20:33:33.624Z,100886.97
2019-02-19T20:36:05.695Z,100888.69
2019-02-19T20:38:38.015Z,100891.28
2019-02-19T20:41:10.199Z,100885.17
2019-02-19T20:43:42.262Z,100882.53
2019-02-19T20:46:19.186Z,100877.70
2019-02-19T20:48:51.658Z,100875.08
2019-02-19T20:51:23.980Z,100879.46
2019-02-19T20:53:55.897Z,100877.70
2019-02-19T20:56:28.010Z,100878.48
2019-02-19T20:59:00.586Z,100878.05
2019-02-19T21:01:32.839Z,100878.49
2019-02-19T21:04:04.872Z,100874.09
2019-02-19T21:06:36.904Z,100877.61
2019-02-19T21:09:09.086Z,100880.73
2019-02-19T21:11:41.935Z,100869.75
2019-02-19T21:14:15.340Z,100878.09
2019-02-19T21:16:47.276Z,100888.19
2019-02-19T21:19:19.429Z,100885.56
2019-02-19T21:21:51.544Z,100890.78
2019-02-19T21:24:23.627Z,100885.52
2019-02-19T21:26:55.798Z,100908.34
2019-02-19T21:29:27.876Z,100907.02
2019-02-19T21:31:59.909Z,100909.11
2019-02-19T21:34:32.091Z,100918.45
2019-02-19T21:37:04.114Z,100907.45
2019-02-19T21:39:36.240Z,100910.09
2019-02-19T21:42:08.650Z,100909.67
2019-02-19T21:44:40.952Z,100908.34
2019-02-19T21:47:12.945Z,100903.06
2019-02-19T21:49:44.794Z,100913.62
2019-02-19T21:52:16.730Z,100921.14
2019-02-19T21:54:48.564Z,100918.45
2019-02-19T21:57:20.559Z,100917.47
2019-02-19T21:59:52.531Z,100922.40
2019-02-19T22:02:24.466Z,100918.02
2019-02-19T22:04:56.505Z,100928.20
2019-02-19T22:07:28.478Z,100929.13
2019-02-19T22:10:00.424Z,100934.84
2019-02-19T22:12:32.499Z,100935.72
2019-02-19T22:15:04.603Z,100935.30
2019-02-19T22:17:36.544Z,100939.73
2019-02-19T22:20:15.607Z,100942.77
2019-02-19T22:22:47.603Z,100939.73
2019-02-19T22:25:19.463Z,100941.07
2019-02-19T22:27:51.375Z,100940.64
2019-02-19T22:30:23.760Z,100936.68
2019-02-19T22:32:55.784Z,100933.61
2019-02-19T22:35:27.614Z,100934.05
2019-02-19T22:37:59.621Z,100930.10
2019-02-19T22:40:31.543Z,100921.34
2019-02-19T22:43:03.403Z,100929.71
2019-02-19T22:45:35.286Z,100931.93
2019-02-19T22:48:07.559Z,100932.84
2019-02-19T22:50:39.483Z,100930.63
2019-02-19T22:53:30.162Z,100943.77
2019-02-19T22:56:14.432Z,100945.06
2019-02-19T22:58:46.241Z,100949.84
2019-02-19T23:01:23.926Z,100946.34
2019-02-19T23:03:58.360Z,100947.69
2019-02-19T23:06:30.360Z,100953.36
2019-02-19T23:09:02.288Z,100951.96
2019-02-19T23:11:35.819Z,100959.02
2019-02-19T23:14:07.711Z,100961.77
2019-02-19T23:16:39.744Z,100957.36
2019-02-19T23:19:11.576Z,100960.44
2019-02-19T23:21:43.545Z,100962.63
2019-02-19T23:24:16.542Z,100969.23
2019-02-19T23:26:49.491Z,100972.30
2019-02-19T23:29:21.424Z,100978.45
2019-02-19T23:31:53.415Z,100981.52
2019-02-19T23:34:25.285Z,100988.52
2019-02-19T23:37:19.993Z,100986.73
2019-02-19T23:39:51.871Z,100988.43
2019-02-19T23:42:23.826Z,100986.64
2019-02-19T23:44:55.745Z,100990.19
2019-02-19T23:47:27.616Z,100984.94
2019-02-19T23:49:59.570Z,100982.77
2019-02-19T23:52:31.341Z,100987.60
2019-02-19T23:55:03.195Z,100990.19
2019-02-19T23:57:35.021Z,100994.09
